sensor_id;sensor_type;location;lat;lon;timestamp;temperature;humidity
23089;DHT22;11713;48.506;8.966;2023-09-19T00:01:09;16.70;99.90
23089;DHT22;11713;48.506;8.966;2023-09-19T00:03:37;16.60;99.90
23089;DHT22;11713;48.506;8.966;2023-09-19T00:06:05;16.60;99.90
23089;DHT22;11713;48.506;8.966;2023-09-19T00:08:33;16.50;99.90
23089;DHT22;11713;48.506;8.966;2023-09-19T00:10:59;16.50;99.90
23089;DHT22;11713;48.506;8.966;2023-09-19T00:13:32;16.50;99.90
23089;DHT22;11713;48.506;8.966;2023-09-19T00:15:58;16.50;99.90
23089;DHT22;11713;48.506;8.966;2023-09-19T00:18:25;16.50;99.90
23089;DHT22;11713;48.506;8.966;2023-09-19T00:20:58;16.60;99.90
23089;DHT22;11713;48.506;8.966;2023-09-19T00:23:24;16.60;99.90
23089;DHT22;11713;48.506;8.966;2023-09-19T00:25:51;16.60;99.90
23089;DHT22;11713;48.506;8.966;2023-09-19T00:28:17;16.60;99.90
23089;DHT22;11713;48.506;8.966;2023-09-19T00:30:44;16.60;99.90
23089;DHT22;11713;48.506;8.966;2023-09-19T00:33:11;16.60;99.90
23089;DHT22;11713;48.506;8.966;2023-09-19T00:35:55;16.60;99.90
23089;DHT22;11713;48.506;8.966;2023-09-19T00:38:22;16.70;99.90
23089;DHT22;11713;48.506;8.966;2023-09-19T00:40:53;16.70;99.90
23089;DHT22;11713;48.506;8.966;2023-09-19T00:43:20;16.60;99.90
23089;DHT22;11713;48.506;8.966;2023-09-19T00:45:49;16.60;99.90
23089;DHT22;11713;48.506;8.966;2023-09-19T00:48:16;16.70;99.90
23089;DHT22;11713;48.506;8.966;2023-09-19T00:50:43;16.70;99.90
23089;DHT22;11713;48.506;8.966;2023-09-19T00:53:09;16.70;99.90
23089;DHT22;11713;48.506;8.966;2023-09-19T00:55:39;16.70;99.90
23089;DHT22;11713;48.506;8.966;2023-09-19T00:58:05;16.60;99.90
23089;DHT22;11713;48.506;8.966;2023-09-19T01:00:34;16.60;99.90
23089;DHT22;11713;48.506;8.966;2023-09-19T01:03:00;16.60;99.90
23089;DHT22;11713;48.506;8.966;2023-09-19T01:05:29;16.60;99.90
23089;DHT22;11713;48.506;8.966;2023-09-19T01:07:55;16.60;99.90
23089;DHT22;11713;48.506;8.966;2023-09-19T01:10:22;16.60;99.90
23089;DHT22;11713;48.506;8.966;2023-09-19T01:15:49;16.60;99.90
23089;DHT22;11713;48.506;8.966;2023-09-19T01:31:58;16.60;99.90
23089;DHT22;11713;48.506;8.966;2023-09-19T01:34:27;16.60;99.90
23089;DHT22;11713;48.506;8.966;2023-09-19T01:36:52;16.60;99.90
23089;DHT22;11713;48.506;8.966;2023-09-19T01:39:19;16.60;99.90
23089;DHT22;11713;48.506;8.966;2023-09-19T01:47:39;16.50;99.90
23089;DHT22;11713;48.506;8.966;2023-09-19T01:50:31;16.50;99.90
23089;DHT22;11713;48.506;8.966;2023-09-19T01:53:06;16.50;99.90
23089;DHT22;11713;48.506;8.966;2023-09-19T01:55:40;16.50;99.90
23089;DHT22;11713;48.506;8.966;2023-09-19T02:00:48;16.40;99.90
23089;DHT22;11713;48.506;8.966;2023-09-19T02:03:16;16.40;99.90
23089;DHT22;11713;48.506;8.966;2023-09-19T02:05:49;16.40;99.90
23089;DHT22;11713;48.506;8.966;2023-09-19T02:08:17;16.40;99.90
23089;DHT22;11713;48.506;8.966;2023-09-19T02:10:45;16.40;99.90
23089;DHT22;11713;48.506;8.966;2023-09-19T02:13:16;16.40;99.90
23089;DHT22;11713;48.506;8.966;2023-09-19T02:15:43;16.40;99.90
23089;DHT22;11713;48.506;8.966;2023-09-19T02:18:15;16.40;99.90
23089;DHT22;11713;48.506;8.966;2023-09-19T02:20:41;16.40;99.90
23089;DHT22;11713;48.506;8.966;2023-09-19T02:23:09;16.30;99.90
23089;DHT22;11713;48.506;8.966;2023-09-19T02:25:35;16.40;99.90
23089;DHT22;11713;48.506;8.966;2023-09-19T02:28:01;16.30;99.90
23089;DHT22;11713;48.506;8.966;2023-09-19T02:30:29;16.30;99.90
23089;DHT22;11713;48.506;8.966;2023-09-19T02:32:55;16.30;99.90
23089;DHT22;11713;48.506;8.966;2023-09-19T02:35:21;16.20;99.90
23089;DHT22;11713;48.506;8.966;2023-09-19T02:37:48;16.20;99.90
23089;DHT22;11713;48.506;8.966;2023-09-19T02:40:15;16.20;99.90
23089;DHT22;11713;48.506;8.966;2023-09-19T02:42:55;16.10;99.90
23089;DHT22;11713;48.506;8.966;2023-09-19T02:45:22;16.10;99.90
23089;DHT22;11713;48.506;8.966;2023-09-19T02:47:49;16.10;99.90
23089;DHT22;11713;48.506;8.966;2023-09-19T02:50:16;16.10;99.90
23089;DHT22;11713;48.506;8.966;2023-09-19T02:52:43;16.10;99.90
23089;DHT22;11713;48.506;8.966;2023-09-19T02:55:11;16.10;99.90
23089;DHT22;11713;48.506;8.966;2023-09-19T02:57:38;16.10;99.90
23089;DHT22;11713;48.506;8.966;2023-09-19T03:00:07;16.20;99.90
23089;DHT22;11713;48.506;8.966;2023-09-19T03:02:36;16.20;99.90
23089;DHT22;11713;48.506;8.966;2023-09-19T03:05:04;16.20;99.90
23089;DHT22;11713;48.506;8.966;2023-09-19T03:07:30;16.20;99.90
23089;DHT22;11713;48.506;8.966;2023-09-19T03:09:56;16.20;99.90
23089;DHT22;11713;48.506;8.966;2023-09-19T03:12:22;16.30;99.90
23089;DHT22;11713;48.506;8.966;2023-09-19T03:14:48;16.20;99.90
23089;DHT22;11713;48.506;8.966;2023-09-19T03:17:16;16.20;99.90
23089;DHT22;11713;48.506;8.966;2023-09-19T03:19:42;16.30;99.90
23089;DHT22;11713;48.506;8.966;2023-09-19T03:22:08;16.30;99.90
23089;DHT22;11713;48.506;8.966;2023-09-19T03:24:34;16.30;99.90
23089;DHT22;11713;48.506;8.966;2023-09-19T03:27:03;16.30;99.90
23089;DHT22;11713;48.506;8.966;2023-09-19T03:29:29;16.30;99.90
23089;DHT22;11713;48.506;8.966;2023-09-19T03:31:56;16.30;99.90
23089;DHT22;11713;48.506;8.966;2023-09-19T03:34:22;16.30;99.90
23089;DHT22;11713;48.506;8.966;2023-09-19T03:36:48;16.30;99.90
23089;DHT22;11713;48.506;8.966;2023-09-19T03:39:14;16.30;99.90
23089;DHT22;11713;48.506;8.966;2023-09-19T03:41:42;16.30;99.90
23089;DHT22;11713;48.506;8.966;2023-09-19T03:44:08;16.30;99.90
23089;DHT22;11713;48.506;8.966;2023-09-19T03:46:35;16.30;99.90
23089;DHT22;11713;48.506;8.966;2023-09-19T03:49:02;16.20;99.90
23089;DHT22;11713;48.506;8.966;2023-09-19T03:51:28;16.20;99.90
23089;DHT22;11713;48.506;8.966;2023-09-19T03:54:07;16.20;99.90
23089;DHT22;11713;48.506;8.966;2023-09-19T03:56:35;16.20;99.90
23089;DHT22;11713;48.506;8.966;2023-09-19T03:59:15;16.20;99.90
23089;DHT22;11713;48.506;8.966;2023-09-19T04:01:46;16.20;99.90
23089;DHT22;11713;48.506;8.966;2023-09-19T04:04:24;16.20;99.90
23089;DHT22;11713;48.506;8.966;2023-09-19T04:06:55;16.20;99.90
23089;DHT22;11713;48.506;8.966;2023-09-19T04:09:21;16.20;99.90
23089;DHT22;11713;48.506;8.966;2023-09-19T04:11:47;16.20;99.90
23089;DHT22;11713;48.506;8.966;2023-09-19T04:14:13;16.20;99.90
23089;DHT22;11713;48.506;8.966;2023-09-19T04:16:38;16.20;99.90
23089;DHT22;11713;48.506;8.966;2023-09-19T04:19:05;16.20;99.90
23089;DHT22;11713;48.506;8.966;2023-09-19T04:21:31;16.20;99.90
23089;DHT22;11713;48.506;8.966;2023-09-19T04:23:57;16.20;99.90
23089;DHT22;11713;48.506;8.966;2023-09-19T04:26:25;16.20;99.90
23089;DHT22;11713;48.506;8.966;2023-09-19T04:28:52;16.20;99.90
23089;DHT22;11713;48.506;8.966;2023-09-19T04:31:19;16.20;99.90
23089;DHT22;11713;48.506;8.966;2023-09-19T04:33:46;16.20;99.90
23089;DHT22;11713;48.506;8.966;2023-09-19T04:36:12;16.10;99.90
23089;DHT22;11713;48.506;8.966;2023-09-19T04:38:38;16.10;99.90
23089;DHT22;11713;48.506;8.966;2023-09-19T04:41:05;16.10;99.90
23089;DHT22;11713;48.506;8.966;2023-09-19T04:43:31;16.10;99.90
23089;DHT22;11713;48.506;8.966;2023-09-19T04:46:00;16.10;99.90
23089;DHT22;11713;48.506;8.966;2023-09-19T04:48:27;16.10;99.90
23089;DHT22;11713;48.506;8.966;2023-09-19T04:50:54;16.10;99.90
23089;DHT22;11713;48.506;8.966;2023-09-19T04:53:20;16.10;99.90
23089;DHT22;11713;48.506;8.966;2023-09-19T04:55:51;16.10;99.90
23089;DHT22;11713;48.506;8.966;2023-09-19T04:58:18;16.00;99.90
23089;DHT22;11713;48.506;8.966;2023-09-19T05:00:45;16.00;99.90
23089;DHT22;11713;48.506;8.966;2023-09-19T05:03:11;16.00;99.90
23089;DHT22;11713;48.506;8.966;2023-09-19T05:05:37;16.00;99.90
23089;DHT22;11713;48.506;8.966;2023-09-19T05:08:04;16.00;99.90
23089;DHT22;11713;48.506;8.966;2023-09-19T05:10:32;16.00;99.90
23089;DHT22;11713;48.506;8.966;2023-09-19T05:12:58;16.00;99.90
23089;DHT22;11713;48.506;8.966;2023-09-19T05:15:23;16.00;99.90
23089;DHT22;11713;48.506;8.966;2023-09-19T05:17:52;16.00;99.90
23089;DHT22;11713;48.506;8.966;2023-09-19T05:20:20;16.00;99.90
23089;DHT22;11713;48.506;8.966;2023-09-19T05:25:35;16.00;99.90
23089;DHT22;11713;48.506;8.966;2023-09-19T05:28:03;16.00;99.90
23089;DHT22;11713;48.506;8.966;2023-09-19T05:30:35;16.00;99.90
23089;DHT22;11713;48.506;8.966;2023-09-19T05:33:05;16.00;99.90
23089;DHT22;11713;48.506;8.966;2023-09-19T05:35:31;16.00;99.90
23089;DHT22;11713;48.506;8.966;2023-09-19T05:37:57;16.10;99.90
23089;DHT22;11713;48.506;8.966;2023-09-19T05:40:24;16.10;99.90
23089;DHT22;11713;48.506;8.966;2023-09-19T05:42:51;16.20;99.90
23089;DHT22;11713;48.506;8.966;2023-09-19T05:45:17;16.20;99.90
23089;DHT22;11713;48.506;8.966;2023-09-19T05:47:52;16.20;99.90
23089;DHT22;11713;48.506;8.966;2023-09-19T05:50:21;16.30;99.90
23089;DHT22;11713;48.506;8.966;2023-09-19T05:52:54;16.20;99.90
23089;DHT22;11713;48.506;8.966;2023-09-19T05:55:22;16.30;99.90
23089;DHT22;11713;48.506;8.966;2023-09-19T05:57:56;16.30;99.90
23089;DHT22;11713;48.506;8.966;2023-09-19T06:00:23;16.30;99.90
23089;DHT22;11713;48.506;8.966;2023-09-19T06:02:54;16.30;99.90
23089;DHT22;11713;48.506;8.966;2023-09-19T06:05:21;16.20;99.90
23089;DHT22;11713;48.506;8.966;2023-09-19T06:07:47;16.20;99.90
23089;DHT22;11713;48.506;8.966;2023-09-19T06:10:14;16.20;99.90
23089;DHT22;11713;48.506;8.966;2023-09-19T06:12:42;16.10;99.90
23089;DHT22;11713;48.506;8.966;2023-09-19T06:15:10;16.10;99.90
23089;DHT22;11713;48.506;8.966;2023-09-19T06:17:53;16.20;99.90
23089;DHT22;11713;48.506;8.966;2023-09-19T06:20:24;16.20;99.90
23089;DHT22;11713;48.506;8.966;2023-09-19T06:22:51;16.20;99.90
23089;DHT22;11713;48.506;8.966;2023-09-19T06:25:17;16.20;99.90
23089;DHT22;11713;48.506;8.966;2023-09-19T06:27:47;16.20;99.90
23089;DHT22;11713;48.506;8.966;2023-09-19T06:30:14;16.20;99.90
23089;DHT22;11713;48.506;8.966;2023-09-19T06:32:43;16.30;99.90
23089;DHT22;11713;48.506;8.966;2023-09-19T06:35:10;16.30;99.90
23089;DHT22;11713;48.506;8.966;2023-09-19T06:37:37;16.40;99.90
23089;DHT22;11713;48.506;8.966;2023-09-19T06:40:13;16.40;99.90
23089;DHT22;11713;48.506;8.966;2023-09-19T06:42:44;16.40;99.90
23089;DHT22;11713;48.506;8.966;2023-09-19T06:45:12;16.50;99.90
23089;DHT22;11713;48.506;8.966;2023-09-19T06:47:39;16.50;99.90
23089;DHT22;11713;48.506;8.966;2023-09-19T06:50:06;16.60;99.90
23089;DHT22;11713;48.506;8.966;2023-09-19T06:52:35;16.70;99.90
23089;DHT22;11713;48.506;8.966;2023-09-19T06:55:01;16.70;99.90
23089;DHT22;11713;48.506;8.966;2023-09-19T06:57:30;16.70;99.90
23089;DHT22;11713;48.506;8.966;2023-09-19T06:59:59;16.80;99.90
23089;DHT22;11713;48.506;8.966;2023-09-19T07:02:27;16.80;99.90
23089;DHT22;11713;48.506;8.966;2023-09-19T07:04:55;16.80;99.90
23089;DHT22;11713;48.506;8.966;2023-09-19T07:07:21;16.90;99.90
23089;DHT22;11713;48.506;8.966;2023-09-19T07:09:47;17.00;99.90
23089;DHT22;11713;48.506;8.966;2023-09-19T07:12:16;17.10;99.90
23089;DHT22;11713;48.506;8.966;2023-09-19T07:14:43;17.10;99.90
23089;DHT22;11713;48.506;8.966;2023-09-19T07:17:12;17.20;99.90
23089;DHT22;11713;48.506;8.966;2023-09-19T07:19:45;17.30;99.90
23089;DHT22;11713;48.506;8.966;2023-09-19T07:22:11;17.30;99.90
23089;DHT22;11713;48.506;8.966;2023-09-19T07:24:37;17.30;99.90
23089;DHT22;11713;48.506;8.966;2023-09-19T07:27:05;17.40;99.90
23089;DHT22;11713;48.506;8.966;2023-09-19T07:29:34;17.50;99.90
23089;DHT22;11713;48.506;8.966;2023-09-19T07:32:01;17.50;99.90
23089;DHT22;11713;48.506;8.966;2023-09-19T07:34:27;17.60;99.90
23089;DHT22;11713;48.506;8.966;2023-09-19T07:36:56;17.60;99.90
23089;DHT22;11713;48.506;8.966;2023-09-19T07:39:25;17.50;99.90
23089;DHT22;11713;48.506;8.966;2023-09-19T07:41:52;17.50;99.90
23089;DHT22;11713;48.506;8.966;2023-09-19T07:44:19;17.50;99.90
23089;DHT22;11713;48.506;8.966;2023-09-19T07:46:46;17.50;99.90
23089;DHT22;11713;48.506;8.966;2023-09-19T07:49:12;17.50;99.90
23089;DHT22;11713;48.506;8.966;2023-09-19T07:51:40;17.50;99.90
23089;DHT22;11713;48.506;8.966;2023-09-19T07:54:08;17.50;99.90
23089;DHT22;11713;48.506;8.966;2023-09-19T07:56:40;17.50;99.90
23089;DHT22;11713;48.506;8.966;2023-09-19T07:59:06;17.60;99.90
23089;DHT22;11713;48.506;8.966;2023-09-19T08:01:32;17.60;99.90
23089;DHT22;11713;48.506;8.966;2023-09-19T08:04:01;17.80;99.90
23089;DHT22;11713;48.506;8.966;2023-09-19T08:06:30;18.10;99.90
23089;DHT22;11713;48.506;8.966;2023-09-19T08:08:56;18.30;99.90
23089;DHT22;11713;48.506;8.966;2023-09-19T08:11:23;18.40;99.90
23089;DHT22;11713;48.506;8.966;2023-09-19T08:13:50;18.60;99.90
23089;DHT22;11713;48.506;8.966;2023-09-19T08:16:17;18.80;99.90
23089;DHT22;11713;48.506;8.966;2023-09-19T08:18:49;18.90;99.90
23089;DHT22;11713;48.506;8.966;2023-09-19T08:21:18;18.90;99.90
23089;DHT22;11713;48.506;8.966;2023-09-19T08:23:45;19.00;99.90
23089;DHT22;11713;48.506;8.966;2023-09-19T08:26:13;19.00;99.90
23089;DHT22;11713;48.506;8.966;2023-09-19T08:28:39;19.00;99.90
23089;DHT22;11713;48.506;8.966;2023-09-19T08:31:10;18.90;99.90
23089;DHT22;11713;48.506;8.966;2023-09-19T08:33:42;18.90;99.90
23089;DHT22;11713;48.506;8.966;2023-09-19T08:36:16;19.00;99.90
23089;DHT22;11713;48.506;8.966;2023-09-19T08:38:45;19.00;99.90
23089;DHT22;11713;48.506;8.966;2023-09-19T08:41:12;19.00;99.90
23089;DHT22;11713;48.506;8.966;2023-09-19T08:43:39;19.10;99.90
23089;DHT22;11713;48.506;8.966;2023-09-19T08:46:11;19.20;99.90
23089;DHT22;11713;48.506;8.966;2023-09-19T08:49:02;19.30;99.90
23089;DHT22;11713;48.506;8.966;2023-09-19T08:51:50;19.50;99.90
23089;DHT22;11713;48.506;8.966;2023-09-19T08:54:32;19.50;99.90
23089;DHT22;11713;48.506;8.966;2023-09-19T08:57:07;19.70;99.90
23089;DHT22;11713;48.506;8.966;2023-09-19T08:59:48;19.70;99.90
23089;DHT22;11713;48.506;8.966;2023-09-19T09:02:19;19.70;99.90
23089;DHT22;11713;48.506;8.966;2023-09-19T09:04:49;19.90;99.90
23089;DHT22;11713;48.506;8.966;2023-09-19T09:07:24;19.90;99.90
23089;DHT22;11713;48.506;8.966;2023-09-19T09:09:51;20.00;99.90
23089;DHT22;11713;48.506;8.966;2023-09-19T09:12:20;20.20;99.90
23089;DHT22;11713;48.506;8.966;2023-09-19T09:14:48;20.20;99.90
23089;DHT22;11713;48.506;8.966;2023-09-19T09:17:26;20.40;99.90
23089;DHT22;11713;48.506;8.966;2023-09-19T09:19:58;20.40;99.90
23089;DHT22;11713;48.506;8.966;2023-09-19T09:22:25;20.20;99.90
23089;DHT22;11713;48.506;8.966;2023-09-19T09:24:55;20.00;99.90
23089;DHT22;11713;48.506;8.966;2023-09-19T09:27:25;20.10;99.90
23089;DHT22;11713;48.506;8.966;2023-09-19T09:29:53;20.20;99.90
23089;DHT22;11713;48.506;8.966;2023-09-19T09:32:29;20.40;99.90
23089;DHT22;11713;48.506;8.966;2023-09-19T09:35:00;20.50;99.90
23089;DHT22;11713;48.506;8.966;2023-09-19T09:37:28;20.70;99.90
23089;DHT22;11713;48.506;8.966;2023-09-19T09:39:59;20.90;99.90
23089;DHT22;11713;48.506;8.966;2023-09-19T09:42:44;20.80;99.90
23089;DHT22;11713;48.506;8.966;2023-09-19T09:45:21;20.80;99.90
23089;DHT22;11713;48.506;8.966;2023-09-19T09:48:04;20.80;99.90
23089;DHT22;11713;48.506;8.966;2023-09-19T09:50:47;20.40;99.90
23089;DHT22;11713;48.506;8.966;2023-09-19T09:53:24;20.30;99.90
23089;DHT22;11713;48.506;8.966;2023-09-19T09:56:07;20.40;99.90
23089;DHT22;11713;48.506;8.966;2023-09-19T09:59:00;20.50;99.90
23089;DHT22;11713;48.506;8.966;2023-09-19T10:01:27;20.70;99.90
23089;DHT22;11713;48.506;8.966;2023-09-19T10:03:59;20.70;99.90
23089;DHT22;11713;48.506;8.966;2023-09-19T10:06:26;20.60;99.90
23089;DHT22;11713;48.506;8.966;2023-09-19T10:09:07;20.50;99.90
23089;DHT22;11713;48.506;8.966;2023-09-19T10:11:47;20.40;99.90
23089;DHT22;11713;48.506;8.966;2023-09-19T10:14:27;20.30;99.90
23089;DHT22;11713;48.506;8.966;2023-09-19T10:16:58;20.40;99.90
23089;DHT22;11713;48.506;8.966;2023-09-19T10:19:54;20.40;99.90
23089;DHT22;11713;48.506;8.966;2023-09-19T10:22:23;20.50;99.90
23089;DHT22;11713;48.506;8.966;2023-09-19T10:24:50;20.50;99.90
23089;DHT22;11713;48.506;8.966;2023-09-19T10:27:20;20.50;99.90
23089;DHT22;11713;48.506;8.966;2023-09-19T10:29:49;20.50;99.90
23089;DHT22;11713;48.506;8.966;2023-09-19T10:32:18;20.40;99.90
23089;DHT22;11713;48.506;8.966;2023-09-19T10:34:47;20.50;99.90
23089;DHT22;11713;48.506;8.966;2023-09-19T10:37:13;20.60;99.90
23089;DHT22;11713;48.506;8.966;2023-09-19T10:39:41;20.60;99.90
23089;DHT22;11713;48.506;8.966;2023-09-19T10:42:14;20.50;99.90
23089;DHT22;11713;48.506;8.966;2023-09-19T10:44:43;20.60;99.90
23089;DHT22;11713;48.506;8.966;2023-09-19T10:47:10;20.60;99.90
23089;DHT22;11713;48.506;8.966;2023-09-19T10:49:44;20.70;99.90
23089;DHT22;11713;48.506;8.966;2023-09-19T10:52:16;20.90;99.90
23089;DHT22;11713;48.506;8.966;2023-09-19T10:54:50;21.10;99.90
23089;DHT22;11713;48.506;8.966;2023-09-19T10:57:23;21.30;99.90
23089;DHT22;11713;48.506;8.966;2023-09-19T11:00:05;21.30;99.90
23089;DHT22;11713;48.506;8.966;2023-09-19T11:05:41;21.20;99.90
23089;DHT22;11713;48.506;8.966;2023-09-19T11:08:08;21.20;99.90
23089;DHT22;11713;48.506;8.966;2023-09-19T11:10:46;20.90;99.90
23089;DHT22;11713;48.506;8.966;2023-09-19T11:13:30;20.80;99.90
23089;DHT22;11713;48.506;8.966;2023-09-19T11:16:05;20.90;99.90
23089;DHT22;11713;48.506;8.966;2023-09-19T11:26:42;21.50;99.90
23089;DHT22;11713;48.506;8.966;2023-09-19T11:29:32;21.50;99.90
23089;DHT22;11713;48.506;8.966;2023-09-19T11:31:58;21.50;99.90
23089;DHT22;11713;48.506;8.966;2023-09-19T11:40:09;22.00;99.90
23089;DHT22;11713;48.506;8.966;2023-09-19T11:42:48;22.10;99.90
23089;DHT22;11713;48.506;8.966;2023-09-19T11:48:24;22.10;99.90
23089;DHT22;11713;48.506;8.966;2023-09-19T11:50:56;22.00;99.90
23089;DHT22;11713;48.506;8.966;2023-09-19T11:53:31;22.10;99.90
23089;DHT22;11713;48.506;8.966;2023-09-19T11:55:58;22.10;99.90
23089;DHT22;11713;48.506;8.966;2023-09-19T11:58:26;22.10;99.90
23089;DHT22;11713;48.506;8.966;2023-09-19T12:00:55;22.30;99.90
23089;DHT22;11713;48.506;8.966;2023-09-19T12:03:29;22.30;99.90
23089;DHT22;11713;48.506;8.966;2023-09-19T12:05:56;22.30;99.90
23089;DHT22;11713;48.506;8.966;2023-09-19T12:08:25;22.30;99.90
23089;DHT22;11713;48.506;8.966;2023-09-19T12:10:55;22.30;99.90
23089;DHT22;11713;48.506;8.966;2023-09-19T12:13:21;22.40;99.90
23089;DHT22;11713;48.506;8.966;2023-09-19T12:15:47;22.50;99.90
23089;DHT22;11713;48.506;8.966;2023-09-19T12:18:30;22.60;99.90
23089;DHT22;11713;48.506;8.966;2023-09-19T12:20:57;22.70;99.90
23089;DHT22;11713;48.506;8.966;2023-09-19T12:23:24;22.90;99.90
23089;DHT22;11713;48.506;8.966;2023-09-19T12:25:54;23.00;99.90
23089;DHT22;11713;48.506;8.966;2023-09-19T12:28:26;23.20;99.90
23089;DHT22;11713;48.506;8.966;2023-09-19T12:30:52;23.30;99.90
23089;DHT22;11713;48.506;8.966;2023-09-19T12:33:21;23.30;99.90
23089;DHT22;11713;48.506;8.966;2023-09-19T12:35:51;23.30;99.90
23089;DHT22;11713;48.506;8.966;2023-09-19T12:38:26;23.20;99.90
23089;DHT22;11713;48.506;8.966;2023-09-19T12:41:01;23.30;99.90
23089;DHT22;11713;48.506;8.966;2023-09-19T12:43:32;23.30;99.90
23089;DHT22;11713;48.506;8.966;2023-09-19T12:45:59;23.40;99.90
23089;DHT22;11713;48.506;8.966;2023-09-19T12:48:26;23.60;99.90
23089;DHT22;11713;48.506;8.966;2023-09-19T12:51:07;23.70;99.90
23089;DHT22;11713;48.506;8.966;2023-09-19T12:53:37;23.90;99.90
23089;DHT22;11713;48.506;8.966;2023-09-19T12:56:07;23.80;99.90
23089;DHT22;11713;48.506;8.966;2023-09-19T12:58:35;23.80;99.90
23089;DHT22;11713;48.506;8.966;2023-09-19T13:01:16;23.90;99.90
23089;DHT22;11713;48.506;8.966;2023-09-19T13:03:42;24.00;99.90
23089;DHT22;11713;48.506;8.966;2023-09-19T13:06:08;24.00;99.90
23089;DHT22;11713;48.506;8.966;2023-09-19T13:08:38;24.20;99.90
23089;DHT22;11713;48.506;8.966;2023-09-19T13:13:43;24.20;99.90
23089;DHT22;11713;48.506;8.966;2023-09-19T13:16:13;24.10;99.90
23089;DHT22;11713;48.506;8.966;2023-09-19T13:18:48;24.30;99.90
23089;DHT22;11713;48.506;8.966;2023-09-19T13:21:17;24.30;99.90
23089;DHT22;11713;48.506;8.966;2023-09-19T13:23:54;24.40;99.90
23089;DHT22;11713;48.506;8.966;2023-09-19T13:26:25;24.40;99.90
23089;DHT22;11713;48.506;8.966;2023-09-19T13:28:51;24.30;99.90
23089;DHT22;11713;48.506;8.966;2023-09-19T13:31:17;24.20;99.90
23089;DHT22;11713;48.506;8.966;2023-09-19T13:33:44;24.20;99.90
23089;DHT22;11713;48.506;8.966;2023-09-19T13:36:11;24.20;99.90
23089;DHT22;11713;48.506;8.966;2023-09-19T13:38:39;24.00;99.90
23089;DHT22;11713;48.506;8.966;2023-09-19T13:41:11;23.90;99.90
23089;DHT22;11713;48.506;8.966;2023-09-19T13:43:41;23.70;99.90
23089;DHT22;11713;48.506;8.966;2023-09-19T13:46:07;23.70;99.90
23089;DHT22;11713;48.506;8.966;2023-09-19T13:48:37;23.60;99.90
23089;DHT22;11713;48.506;8.966;2023-09-19T13:51:04;23.70;99.90
23089;DHT22;11713;48.506;8.966;2023-09-19T13:53:30;23.70;99.90
23089;DHT22;11713;48.506;8.966;2023-09-19T13:55:56;23.70;99.90
23089;DHT22;11713;48.506;8.966;2023-09-19T13:58:22;23.70;99.90
23089;DHT22;11713;48.506;8.966;2023-09-19T14:00:48;23.80;99.90
23089;DHT22;11713;48.506;8.966;2023-09-19T14:03:14;24.00;99.90
23089;DHT22;11713;48.506;8.966;2023-09-19T14:05:40;23.90;99.90
23089;DHT22;11713;48.506;8.966;2023-09-19T14:08:08;24.00;99.90
23089;DHT22;11713;48.506;8.966;2023-09-19T14:10:34;24.00;99.90
23089;DHT22;11713;48.506;8.966;2023-09-19T14:13:00;24.00;99.90
23089;DHT22;11713;48.506;8.966;2023-09-19T14:15:27;24.00;99.90
23089;DHT22;11713;48.506;8.966;2023-09-19T14:17:57;24.20;99.90
23089;DHT22;11713;48.506;8.966;2023-09-19T14:20:23;24.30;99.90
23089;DHT22;11713;48.506;8.966;2023-09-19T14:22:49;24.30;99.90
23089;DHT22;11713;48.506;8.966;2023-09-19T14:25:14;24.30;99.90
23089;DHT22;11713;48.506;8.966;2023-09-19T14:27:41;24.30;99.90
23089;DHT22;11713;48.506;8.966;2023-09-19T14:30:07;24.40;99.90
23089;DHT22;11713;48.506;8.966;2023-09-19T14:32:34;24.30;99.90
23089;DHT22;11713;48.506;8.966;2023-09-19T14:35:02;24.30;99.90
23089;DHT22;11713;48.506;8.966;2023-09-19T14:37:28;24.20;99.90
23089;DHT22;11713;48.506;8.966;2023-09-19T14:39:54;24.10;99.90
23089;DHT22;11713;48.506;8.966;2023-09-19T14:42:20;24.00;99.90
23089;DHT22;11713;48.506;8.966;2023-09-19T14:44:45;24.10;99.90
23089;DHT22;11713;48.506;8.966;2023-09-19T14:47:13;24.10;99.90
23089;DHT22;11713;48.506;8.966;2023-09-19T14:49:39;24.30;99.90
23089;DHT22;11713;48.506;8.966;2023-09-19T14:52:08;24.40;99.90
23089;DHT22;11713;48.506;8.966;2023-09-19T14:54:34;24.40;99.90
23089;DHT22;11713;48.506;8.966;2023-09-19T14:57:01;24.50;99.90
23089;DHT22;11713;48.506;8.966;2023-09-19T14:59:33;24.40;99.90
23089;DHT22;11713;48.506;8.966;2023-09-19T15:02:03;24.30;99.90
23089;DHT22;11713;48.506;8.966;2023-09-19T15:04:29;24.30;99.90
23089;DHT22;11713;48.506;8.966;2023-09-19T15:06:55;24.30;99.90
23089;DHT22;11713;48.506;8.966;2023-09-19T15:09:24;24.40;99.90
23089;DHT22;11713;48.506;8.966;2023-09-19T15:11:55;24.50;99.90
23089;DHT22;11713;48.506;8.966;2023-09-19T15:14:24;24.60;99.90
23089;DHT22;11713;48.506;8.966;2023-09-19T15:16:50;24.50;99.90
23089;DHT22;11713;48.506;8.966;2023-09-19T15:19:16;24.20;99.90
23089;DHT22;11713;48.506;8.966;2023-09-19T15:21:43;23.90;99.90
23089;DHT22;11713;48.506;8.966;2023-09-19T15:24:09;24.00;99.90
23089;DHT22;11713;48.506;8.966;2023-09-19T15:26:36;24.00;99.90
23089;DHT22;11713;48.506;8.966;2023-09-19T15:29:09;23.90;99.90
23089;DHT22;11713;48.506;8.966;2023-09-19T15:31:36;24.10;99.90
23089;DHT22;11713;48.506;8.966;2023-09-19T15:34:05;24.20;99.90
23089;DHT22;11713;48.506;8.966;2023-09-19T15:36:34;24.30;99.90
23089;DHT22;11713;48.506;8.966;2023-09-19T15:39:09;24.30;99.90
23089;DHT22;11713;48.506;8.966;2023-09-19T15:41:46;24.20;99.90
23089;DHT22;11713;48.506;8.966;2023-09-19T15:44:32;24.20;99.90
23089;DHT22;11713;48.506;8.966;2023-09-19T15:46:59;24.10;99.90
23089;DHT22;11713;48.506;8.966;2023-09-19T15:49:25;24.10;99.90
23089;DHT22;11713;48.506;8.966;2023-09-19T15:51:51;24.10;99.90
23089;DHT22;11713;48.506;8.966;2023-09-19T15:54:17;24.10;99.90
23089;DHT22;11713;48.506;8.966;2023-09-19T15:56:44;23.90;99.90
23089;DHT22;11713;48.506;8.966;2023-09-19T15:59:11;23.90;99.90
23089;DHT22;11713;48.506;8.966;2023-09-19T16:01:41;23.80;99.90
23089;DHT22;11713;48.506;8.966;2023-09-19T16:04:12;23.60;99.90
23089;DHT22;11713;48.506;8.966;2023-09-19T16:06:42;23.50;99.90
23089;DHT22;11713;48.506;8.966;2023-09-19T16:09:10;23.30;99.90
23089;DHT22;11713;48.506;8.966;2023-09-19T16:11:36;23.10;99.90
23089;DHT22;11713;48.506;8.966;2023-09-19T16:14:03;22.90;99.90
23089;DHT22;11713;48.506;8.966;2023-09-19T16:16:30;22.90;99.90
23089;DHT22;11713;48.506;8.966;2023-09-19T16:18:59;22.70;99.90
23089;DHT22;11713;48.506;8.966;2023-09-19T16:21:27;22.70;99.90
23089;DHT22;11713;48.506;8.966;2023-09-19T16:23:55;22.60;99.90
23089;DHT22;11713;48.506;8.966;2023-09-19T16:26:22;22.50;99.90
23089;DHT22;11713;48.506;8.966;2023-09-19T16:28:56;22.50;99.90
23089;DHT22;11713;48.506;8.966;2023-09-19T16:31:27;22.20;99.90
23089;DHT22;11713;48.506;8.966;2023-09-19T16:33:53;22.10;99.90